Time;durP1;ratioP1;P1;durP2;ratioP2;P2;SDS_P1;SDS_P2;PMS_P1;PMS_P2;Temp;Humidity;BMP_temperature;BMP_pressure;BME280_temperature;BME280_humidity;BME280_pressure;Samples;Min_cycle;Max_cycle;Signal;HPM_P1;HPM_P2
2021/05/02 00:00:02;;;;;;;14.40;12.18;;;;;;;8.19;74.33;99359.78;2158809;40;20444;-78
2021/05/02 00:01:33;;;;;;;19.35;13.63;;;;;;;8.15;74.42;99358.38;2182411;40;20039;-77
2021/05/02 00:03:06;;;;;;;16.83;13.23;;;;;;;8.14;74.64;99358.53;2194722;40;20106;-77
2021/05/02 00:04:37;;;;;;;15.65;13.05;;;;;;;8.11;74.38;99363.16;2202740;40;20057;-77
2021/05/02 00:06:10;;;;;;;16.88;13.20;;;;;;;8.10;74.54;99365.97;2191647;40;20047;-77
2021/05/02 00:07:42;;;;;;;17.23;14.07;;;;;;;8.11;74.43;99362.34;2185625;40;20044;-77
2021/05/02 00:09:14;;;;;;;16.02;13.02;;;;;;;8.12;74.19;99367.50;2185300;40;20063;-77
2021/05/02 00:10:45;;;;;;;14.55;12.85;;;;;;;8.14;74.50;99367.34;2180578;40;20040;-77
2021/05/02 00:12:17;;;;;;;16.25;12.52;;;;;;;8.15;74.62;99369.03;2175145;41;20063;-77
2021/05/02 00:13:48;;;;;;;15.15;12.15;;;;;;;8.16;74.61;99365.38;2183769;40;20067;-77
2021/05/02 00:15:23;;;;;;;15.98;12.95;;;;;;;8.18;74.71;99366.09;2171117;41;20671;-77
2021/05/02 00:16:56;;;;;;;15.98;12.70;;;;;;;8.21;74.74;99372.94;2170153;41;20028;-77
2021/05/02 00:18:28;;;;;;;17.73;14.55;;;;;;;8.22;74.72;99364.78;2174865;41;20077;-77
2021/05/02 00:19:59;;;;;;;16.70;13.98;;;;;;;8.22;74.74;99374.63;2171378;41;20036;-77
2021/05/02 00:21:31;;;;;;;15.25;12.10;;;;;;;8.21;74.46;99376.44;2165987;41;20479;-78
2021/05/02 00:23:03;;;;;;;14.98;12.00;;;;;;;8.25;74.66;99380.47;2178071;40;20803;-77
2021/05/02 00:24:36;;;;;;;15.25;12.50;;;;;;;8.30;74.46;99381.88;2179878;40;20414;-77
2021/05/02 00:26:09;;;;;;;22.55;15.07;;;;;;;8.25;74.43;99377.81;2182532;40;20036;-77
2021/05/02 00:27:41;;;;;;;16.80;13.30;;;;;;;8.21;74.49;99389.75;2202360;40;20831;-77
2021/05/02 00:29:16;;;;;;;17.13;13.82;;;;;;;8.18;74.67;99387.38;2199601;40;21633;-77
2021/05/02 00:30:47;;;;;;;15.25;12.70;;;;;;;8.15;74.69;99393.00;2193331;40;20058;-77
2021/05/02 00:32:19;;;;;;;15.85;14.00;;;;;;;8.13;75.07;99392.28;2198847;40;20039;-76
2021/05/02 00:33:51;;;;;;;19.05;15.40;;;;;;;8.09;75.06;99401.56;2192993;40;20042;-77
2021/05/02 00:35:24;;;;;;;15.50;13.35;;;;;;;8.06;75.55;99399.19;2163726;40;20070;-78
2021/05/02 00:36:55;;;;;;;17.88;14.15;;;;;;;8.06;75.66;99402.69;2201844;40;20046;-77
2021/05/02 00:38:27;;;;;;;17.23;13.02;;;;;;;8.06;75.56;99392.06;2213995;40;20046;-78
2021/05/02 00:39:59;;;;;;;17.92;14.30;;;;;;;8.09;75.97;99404.22;2214278;40;20041;-77
2021/05/02 00:41:33;;;;;;;17.80;13.93;;;;;;;8.10;75.96;99406.72;2215040;40;20061;-78
2021/05/02 00:43:07;;;;;;;17.75;13.00;;;;;;;8.08;75.98;99413.19;2213217;40;20041;-77
2021/05/02 00:44:45;;;;;;;21.48;15.52;;;;;;;8.14;76.19;99409.13;2196516;40;20034;-76
2021/05/02 00:46:18;;;;;;;18.58;13.52;;;;;;;8.11;76.25;99407.59;2211236;40;20034;-77
2021/05/02 00:47:53;;;;;;;17.98;14.75;;;;;;;8.12;76.20;99417.25;2211882;40;20316;-77
2021/05/02 00:49:32;;;;;;;16.70;13.90;;;;;;;8.11;76.36;99416.41;2207879;40;20099;-77
2021/05/02 00:51:06;;;;;;;19.15;16.08;;;;;;;8.15;76.52;99418.78;2162397;40;20047;-77
2021/05/02 00:52:41;;;;;;;16.15;13.10;;;;;;;8.19;76.54;99418.34;2213065;40;20040;-77
2021/05/02 00:54:18;;;;;;;21.13;16.17;;;;;;;8.20;76.28;99414.72;2197341;40;20038;-77
2021/05/02 00:55:55;;;;;;;19.23;15.88;;;;;;;8.20;76.19;99430.69;2207444;40;20117;-77
2021/05/02 00:57:30;;;;;;;18.70;15.68;;;;;;;8.13;76.39;99426.91;2206837;40;21458;-77
2021/05/02 00:59:03;;;;;;;18.05;14.60;;;;;;;8.06;76.09;99424.00;2212020;40;20142;-77
2021/05/02 01:00:37;;;;;;;17.10;13.95;;;;;;;8.05;76.14;99421.47;2215587;40;20033;-77
2021/05/02 01:02:10;;;;;;;22.55;17.45;;;;;;;8.05;76.17;99429.44;2207654;40;25069;-77
2021/05/02 01:03:46;;;;;;;20.15;16.35;;;;;;;8.04;76.36;99431.28;2209666;40;20049;-77
2021/05/02 01:05:20;;;;;;;21.52;17.20;;;;;;;8.05;76.53;99429.44;2196729;40;20090;-77
2021/05/02 01:06:55;;;;;;;19.13;15.73;;;;;;;8.02;76.61;99433.25;2207463;40;20038;-77
2021/05/02 01:08:29;;;;;;;18.40;14.55;;;;;;;8.05;76.81;99432.09;2196399;40;20395;-77
2021/05/02 01:10:05;;;;;;;17.15;13.73;;;;;;;8.06;76.61;99431.13;2218425;40;20038;-77
2021/05/02 01:11:41;;;;;;;22.40;17.63;;;;;;;8.03;76.62;99431.44;2211384;40;20038;-77
2021/05/02 01:13:20;;;;;;;20.67;17.45;;;;;;;7.96;76.47;99447.97;2211403;40;20034;-77
2021/05/02 01:14:54;;;;;;;25.80;19.20;;;;;;;7.85;76.81;99442.78;2213517;40;20043;-77
2021/05/02 01:16:26;;;;;;;22.77;17.92;;;;;;;7.79;76.96;99446.84;2216704;40;20030;-77
2021/05/02 01:18:00;;;;;;;20.98;17.55;;;;;;;7.78;77.16;99452.31;2217648;40;20058;-77
2021/05/02 01:19:32;;;;;;;21.00;17.63;;;;;;;7.78;77.33;99447.84;2211491;40;20046;-76
2021/05/02 01:21:04;;;;;;;22.50;17.65;;;;;;;7.82;77.50;99448.41;2186458;40;20038;-77
2021/05/02 01:22:38;;;;;;;20.38;16.55;;;;;;;7.87;77.44;99448.81;2196162;40;20070;-77
2021/05/02 01:24:11;;;;;;;22.83;16.83;;;;;;;7.92;77.52;99449.25;2165791;40;20050;-78
2021/05/02 01:25:43;;;;;;;19.95;15.82;;;;;;;7.93;77.49;99450.06;2192486;40;20047;-77
2021/05/02 01:27:25;;;;;;;21.58;18.63;;;;;;;7.94;77.42;99451.75;2197116;40;20043;-78
2021/05/02 01:28:58;;;;;;;20.15;15.18;;;;;;;7.93;77.51;99458.91;2208095;40;20029;-77
2021/05/02 01:30:29;;;;;;;26.70;21.92;;;;;;;7.92;77.39;99457.22;2215206;40;20884;-78
2021/05/02 01:32:02;;;;;;;23.15;19.35;;;;;;;7.89;77.50;99464.63;2198048;40;20374;-77
2021/05/02 01:33:34;;;;;;;27.00;21.48;;;;;;;7.91;77.82;99452.03;2209982;40;20053;-77
2021/05/02 01:35:07;;;;;;;22.52;17.45;;;;;;;7.89;77.76;99460.16;2202035;40;20037;-77
2021/05/02 01:36:38;;;;;;;24.10;17.63;;;;;;;7.91;77.63;99463.53;2221807;40;20056;-77
2021/05/02 01:38:10;;;;;;;21.85;16.15;;;;;;;7.95;78.02;99453.44;2209586;40;20020;-78
2021/05/02 01:39:42;;;;;;;21.50;16.92;;;;;;;8.02;77.78;99459.84;2219357;40;20037;-77
2021/05/02 01:41:13;;;;;;;25.45;19.65;;;;;;;8.06;77.69;99460.41;2178818;40;20131;-77
2021/05/02 01:42:46;;;;;;;26.20;18.90;;;;;;;8.04;77.53;99463.22;2210873;40;20342;-77
2021/05/02 01:44:17;;;;;;;22.70;17.05;;;;;;;8.04;77.54;99460.56;2195217;40;20033;-78
2021/05/02 01:45:49;;;;;;;19.48;14.85;;;;;;;8.06;77.52;99471.06;2204074;40;20041;-78
2021/05/02 01:47:21;;;;;;;25.38;18.40;;;;;;;8.07;77.72;99475.41;2211052;40;20084;-78
2021/05/02 01:48:52;;;;;;;28.73;19.50;;;;;;;8.09;77.83;99479.59;2204628;40;20042;-78
2021/05/02 01:50:27;;;;;;;25.67;19.52;;;;;;;8.13;77.68;99472.16;2194449;40;20046;-78
2021/05/02 01:51:59;;;;;;;28.95;20.73;;;;;;;8.18;77.76;99474.41;2186577;40;20039;-78
2021/05/02 01:53:32;;;;;;;22.20;17.45;;;;;;;8.20;77.76;99481.28;2178861;40;20044;-78
2021/05/02 01:55:05;;;;;;;25.00;19.65;;;;;;;8.22;77.89;99475.81;2188123;40;20667;-78
2021/05/02 01:56:37;;;;;;;25.63;19.48;;;;;;;8.19;77.82;99481.41;2196049;40;20047;-78
2021/05/02 01:58:10;;;;;;;24.45;19.88;;;;;;;8.15;78.00;99486.19;2191523;40;20039;-78
2021/05/02 01:59:42;;;;;;;28.30;21.45;;;;;;;8.09;78.05;99478.78;2192658;40;20493;-78
2021/05/02 02:01:18;;;;;;;28.38;22.52;;;;;;;8.02;77.88;99475.00;2194521;40;20402;-78
2021/05/02 02:02:50;;;;;;;28.63;20.92;;;;;;;7.92;77.99;99489.16;2158650;40;20043;-78
2021/05/02 02:04:25;;;;;;;27.67;23.33;;;;;;;7.90;78.33;99491.13;2163916;41;20050;-78
2021/05/02 02:05:58;;;;;;;26.88;20.95;;;;;;;7.85;78.55;99490.69;2188385;40;20066;-78
2021/05/02 02:07:31;;;;;;;27.52;22.25;;;;;;;7.86;78.63;99496.88;2210291;40;20038;-78
2021/05/02 02:09:06;;;;;;;25.42;20.20;;;;;;;7.91;78.96;99489.28;2210602;40;20062;-79
2021/05/02 02:10:39;;;;;;;31.73;23.25;;;;;;;7.91;78.79;99491.94;2208260;40;20046;-80
2021/05/02 02:12:11;;;;;;;29.48;23.63;;;;;;;7.87;78.71;99498.56;2207829;40;20397;-78
2021/05/02 02:13:47;;;;;;;30.58;23.67;;;;;;;7.82;78.99;99498.97;2205543;40;20031;-78
2021/05/02 02:15:18;;;;;;;28.95;24.35;;;;;;;7.72;79.21;99501.63;2212553;40;20478;-78
2021/05/02 02:16:51;;;;;;;28.58;22.80;;;;;;;7.77;79.36;99510.03;2213672;40;20075;-78
2021/05/02 02:18:22;;;;;;;24.63;19.80;;;;;;;7.72;79.36;99511.44;2212449;40;20022;-78
2021/05/02 02:19:54;;;;;;;30.15;22.27;;;;;;;7.73;79.34;99513.13;2210390;40;20323;-78
2021/05/02 02:21:26;;;;;;;31.83;25.70;;;;;;;7.67;79.47;99505.66;2212071;40;20461;-78
2021/05/02 02:23:01;;;;;;;29.92;24.58;;;;;;;7.62;79.66;99509.59;2210717;40;20053;-78
2021/05/02 02:24:43;;;;;;;31.45;24.08;;;;;;;7.59;79.87;99507.22;2212828;40;20037;-78
2021/05/02 02:26:20;;;;;;;34.67;26.42;;;;;;;7.59;79.88;99514.38;2209322;40;20046;-78
2021/05/02 02:27:53;;;;;;;28.83;22.50;;;;;;;7.62;79.81;99511.41;2212356;40;20048;-79
2021/05/02 02:29:26;;;;;;;28.48;23.73;;;;;;;7.57;79.83;99503.84;2199196;40;20369;-78
2021/05/02 02:30:59;;;;;;;27.23;22.40;;;;;;;7.59;79.72;99509.03;2215372;40;20057;-79
2021/05/02 02:32:31;;;;;;;23.02;18.52;;;;;;;7.61;79.55;99509.72;2218440;40;20041;-78
2021/05/02 02:34:05;;;;;;;27.50;20.73;;;;;;;7.68;79.60;99510.00;2220012;40;20041;-78
2021/05/02 02:35:40;;;;;;;30.00;23.55;;;;;;;7.70;79.36;99519.53;2217555;40;20041;-78
2021/05/02 02:37:13;;;;;;;29.33;21.83;;;;;;;7.71;79.26;99513.25;2219515;40;20102;-78
2021/05/02 02:38:46;;;;;;;28.88;23.67;;;;;;;7.71;78.95;99517.72;2216314;40;20036;-78
2021/05/02 02:40:19;;;;;;;28.70;23.52;;;;;;;7.70;79.21;99524.03;2216164;40;20361;-77
2021/05/02 02:41:52;;;;;;;30.35;23.45;;;;;;;7.70;79.02;99521.38;2213351;40;20529;-77
2021/05/02 02:43:24;;;;;;;30.38;22.95;;;;;;;7.75;79.26;99525.28;2203129;40;20034;-78
2021/05/02 02:44:58;;;;;;;26.63;19.95;;;;;;;7.83;79.29;99529.94;2208674;40;20049;-78
2021/05/02 02:46:30;;;;;;;28.58;23.48;;;;;;;7.87;78.94;99531.31;2217122;40;20052;-78
2021/05/02 02:48:05;;;;;;;32.92;24.95;;;;;;;7.87;78.93;99535.81;2164999;40;20038;-78
2021/05/02 02:49:43;;;;;;;36.28;25.90;;;;;;;7.81;78.56;99529.22;2208142;40;20773;-79
2021/05/02 02:51:17;;;;;;;30.02;24.33;;;;;;;7.76;78.49;99528.78;2211984;40;20600;-78
2021/05/02 02:52:50;;;;;;;31.80;26.27;;;;;;;7.71;78.54;99537.19;2220270;40;20092;-78
2021/05/02 02:54:23;;;;;;;28.00;23.05;;;;;;;7.70;78.74;99537.34;2218438;40;20033;-78
2021/05/02 02:56:02;;;;;;;27.15;21.67;;;;;;;7.75;78.44;99543.06;2219656;40;20094;-78
2021/05/02 02:57:40;;;;;;;26.13;21.30;;;;;;;7.76;78.31;99534.09;2209373;40;20115;-78
2021/05/02 02:59:19;;;;;;;30.23;23.85;;;;;;;7.80;77.92;99543.50;2219412;40;20040;-78
2021/05/02 03:00:53;;;;;;;26.20;20.13;;;;;;;7.80;77.52;99540.84;2218777;40;20037;-78
2021/05/02 03:02:25;;;;;;;27.98;22.27;;;;;;;7.85;77.39;99543.91;2213846;40;20052;-78
2021/05/02 03:03:59;;;;;;;23.90;19.50;;;;;;;7.90;76.99;99540.84;2206856;40;20143;-78
2021/05/02 03:05:33;;;;;;;24.60;19.50;;;;;;;7.94;76.81;99548.41;2219178;40;20044;-79
2021/05/02 03:07:05;;;;;;;23.75;19.88;;;;;;;7.96;76.43;99545.63;2222237;40;20040;-79
2021/05/02 03:08:39;;;;;;;25.40;20.92;;;;;;;7.94;75.99;99548.41;2209252;40;20111;-77
2021/05/02 03:10:14;;;;;;;24.25;17.83;;;;;;;7.95;76.07;99543.94;2223038;40;20448;-78
2021/05/02 03:11:45;;;;;;;20.40;17.05;;;;;;;7.98;75.62;99541.00;2201172;40;20034;-78
2021/05/02 03:13:17;;;;;;;20.85;16.65;;;;;;;8.00;75.49;99541.69;2213641;40;20037;-78
2021/05/02 03:14:51;;;;;;;25.65;20.98;;;;;;;8.02;75.14;99539.72;2201669;40;20429;-78
2021/05/02 03:16:25;;;;;;;21.10;17.90;;;;;;;8.04;75.24;99548.41;2204562;40;20387;-78
2021/05/02 03:18:03;;;;;;;18.33;15.35;;;;;;;8.07;75.37;99545.47;2196656;40;20059;-78
2021/05/02 03:19:40;;;;;;;18.95;16.10;;;;;;;8.09;75.46;99548.81;2193026;40;20039;-79
2021/05/02 03:21:13;;;;;;;22.45;17.88;;;;;;;8.10;75.01;99553.16;2141312;41;20148;-78
2021/05/02 03:22:50;;;;;;;22.13;17.42;;;;;;;8.11;75.00;99554.84;2170063;41;20046;-78
2021/05/02 03:24:28;;;;;;;19.90;16.73;;;;;;;8.14;74.83;99556.38;2135993;41;20400;-78
2021/05/02 03:26:04;;;;;;;24.13;17.95;;;;;;;8.16;74.59;99567.75;2186224;40;20525;-78
2021/05/02 03:27:39;;;;;;;23.98;19.38;;;;;;;8.10;74.23;99557.66;2186942;40;20036;-79
2021/05/02 03:29:12;;;;;;;20.52;17.48;;;;;;;8.11;74.34;99562.00;2185306;40;20028;-78
2021/05/02 03:30:45;;;;;;;22.77;19.33;;;;;;;8.11;74.33;99564.66;2197078;40;20039;-78
2021/05/02 03:32:20;;;;;;;21.38;18.55;;;;;;;8.13;74.24;99578.66;2204613;40;20060;-78
2021/05/02 03:33:57;;;;;;;23.73;20.95;;;;;;;8.15;74.38;99576.69;2197783;40;20047;-78
2021/05/02 03:35:32;;;;;;;18.20;16.10;;;;;;;8.15;74.58;99582.03;2191112;40;20039;-78
2021/05/02 03:37:07;;;;;;;20.95;18.08;;;;;;;8.17;74.53;99574.75;2191875;40;20375;-78
2021/05/02 03:38:46;;;;;;;20.17;17.20;;;;;;;8.21;74.75;99583.28;2192579;40;20046;-78
2021/05/02 03:40:18;;;;;;;21.60;17.17;;;;;;;8.21;74.87;99580.63;2184764;40;20040;-78
2021/05/02 03:41:50;;;;;;;21.95;18.27;;;;;;;8.22;74.65;99580.47;2174416;41;20037;-78
2021/05/02 03:43:20;;;;;;;21.20;17.55;;;;;;;8.23;74.92;99584.81;2181435;40;20037;-77
2021/05/02 03:44:53;;;;;;;21.35;15.80;;;;;;;8.24;74.94;99581.19;2185429;40;20051;-77
2021/05/02 03:46:24;;;;;;;21.33;18.05;;;;;;;8.24;74.85;99583.84;2178472;40;20135;-78
2021/05/02 03:47:55;;;;;;;24.10;18.85;;;;;;;8.25;75.07;99584.69;2192119;40;20043;-78
2021/05/02 03:49:29;;;;;;;21.13;17.50;;;;;;;8.25;75.18;99582.88;2189421;40;20028;-78
2021/05/02 03:51:01;;;;;;;21.20;18.02;;;;;;;8.27;74.99;99591.56;2213048;40;20123;-78
2021/05/02 03:52:32;;;;;;;24.13;20.85;;;;;;;8.25;74.92;99590.84;2216341;40;20084;-78
2021/05/02 03:54:06;;;;;;;21.65;18.80;;;;;;;8.25;74.94;99593.53;2218909;40;20080;-78
2021/05/02 03:55:41;;;;;;;22.50;19.52;;;;;;;8.25;74.88;99593.53;2217489;40;20579;-78
2021/05/02 03:57:12;;;;;;;18.45;15.40;;;;;;;8.26;75.07;99597.88;2216711;40;20374;-78
2021/05/02 03:58:43;;;;;;;19.25;16.00;;;;;;;8.30;75.11;99593.09;2216688;40;20071;-78
2021/05/02 04:00:16;;;;;;;21.42;17.92;;;;;;;8.30;74.88;99601.09;2216846;40;20368;-78
2021/05/02 04:01:52;;;;;;;19.20;16.75;;;;;;;8.26;74.91;99595.22;2215284;40;20030;-78
2021/05/02 04:03:24;;;;;;;20.83;17.15;;;;;;;8.27;74.81;99591.56;2217079;40;20041;-78
2021/05/02 04:04:55;;;;;;;20.55;18.20;;;;;;;8.28;74.78;99603.91;2215924;40;20439;-77
2021/05/02 04:06:26;;;;;;;19.15;16.42;;;;;;;8.30;74.58;99606.41;2217075;40;20034;-78
2021/05/02 04:07:57;;;;;;;21.30;17.38;;;;;;;8.30;74.85;99605.59;2216075;40;20045;-78
2021/05/02 04:09:28;;;;;;;21.02;17.08;;;;;;;8.31;74.54;99607.28;2218616;40;20025;-78
2021/05/02 04:11:00;;;;;;;22.70;19.42;;;;;;;8.32;74.50;99600.94;2216663;40;20045;-77
2021/05/02 04:12:31;;;;;;;23.02;20.08;;;;;;;8.32;74.36;99608.94;2217259;40;20045;-77
2021/05/02 04:14:03;;;;;;;27.10;23.20;;;;;;;8.28;74.38;99613.69;2217166;40;20559;-78
2021/05/02 04:15:35;;;;;;;24.98;21.77;;;;;;;8.23;74.47;99608.78;2217474;40;20069;-78
2021/05/02 04:17:08;;;;;;;25.58;21.88;;;;;;;8.19;74.40;99612.72;2202383;40;20069;-78
2021/05/02 04:18:39;;;;;;;25.05;19.83;;;;;;;8.16;74.40;99614.84;2216643;40;20042;-78
2021/05/02 04:20:11;;;;;;;22.08;19.63;;;;;;;8.15;74.17;99606.00;2193005;40;20717;-78
2021/05/02 04:21:42;;;;;;;24.27;19.85;;;;;;;8.15;74.15;99611.31;2217942;40;20026;-78
2021/05/02 04:23:13;;;;;;;23.65;21.05;;;;;;;8.15;74.13;99623.81;2182102;40;20052;-78
2021/05/02 04:24:46;;;;;;;25.92;21.88;;;;;;;8.12;74.14;99619.59;2219382;40;20495;-78
2021/05/02 04:26:18;;;;;;;22.33;19.50;;;;;;;8.09;73.90;99627.88;2177604;40;20054;-78
2021/05/02 04:27:49;;;;;;;24.02;20.55;;;;;;;8.09;73.83;99623.38;2223341;40;20049;-79
2021/05/02 04:29:21;;;;;;;23.10;20.60;;;;;;;8.08;73.93;99624.34;2212582;40;20042;-78
2021/05/02 04:30:53;;;;;;;19.35;16.88;;;;;;;8.08;73.66;99629.66;2210787;40;20041;-78
2021/05/02 04:32:24;;;;;;;21.83;17.77;;;;;;;8.13;74.11;99626.59;2199357;40;20214;-78
2021/05/02 04:33:55;;;;;;;21.52;18.83;;;;;;;8.18;73.37;99635.00;2196098;40;20050;-79
2021/05/02 04:35:27;;;;;;;20.35;17.17;;;;;;;8.22;73.61;99625.75;2151624;40;20082;-78
2021/05/02 04:36:59;;;;;;;26.02;21.05;;;;;;;8.24;73.53;99629.13;2211792;40;20194;-77
2021/05/02 04:38:30;;;;;;;24.92;20.98;;;;;;;8.23;73.74;99631.94;2210454;40;20038;-78
2021/05/02 04:40:02;;;;;;;21.98;18.05;;;;;;;8.19;73.73;99630.50;2211509;40;20049;-78
2021/05/02 04:41:33;;;;;;;23.95;21.38;;;;;;;8.14;73.71;99630.94;2181258;40;20030;-78
2021/05/02 04:43:04;;;;;;;24.60;21.85;;;;;;;8.07;73.57;99628.00;2206753;40;20038;-78
2021/05/02 04:44:35;;;;;;;24.50;21.58;;;;;;;8.00;73.79;99636.69;2193511;40;20045;-78
2021/05/02 04:46:11;;;;;;;26.63;23.70;;;;;;;7.96;74.10;99636.13;2210787;40;20034;-77
2021/05/02 04:47:42;;;;;;;23.88;19.70;;;;;;;7.92;74.48;99637.34;2208190;40;20042;-77
2021/05/02 04:49:14;;;;;;;29.40;22.85;;;;;;;7.95;74.64;99639.75;2211102;40;20061;-78
2021/05/02 04:50:45;;;;;;;21.30;17.67;;;;;;;7.99;74.89;99641.13;2210652;40;20049;-78
2021/05/02 04:52:23;;;;;;;27.55;23.42;;;;;;;8.06;74.71;99641.44;2214020;40;20062;-78
2021/05/02 04:53:55;;;;;;;21.42;17.73;;;;;;;8.11;74.66;99650.69;2197353;40;20045;-79
2021/05/02 04:55:28;;;;;;;23.90;21.23;;;;;;;8.18;74.54;99655.47;2213267;40;20034;-79
2021/05/02 04:57:00;;;;;;;22.98;19.08;;;;;;;8.20;74.38;99653.50;2181464;40;20030;-79
2021/05/02 04:58:31;;;;;;;21.40;17.33;;;;;;;8.23;74.24;99661.22;2207485;40;20034;-78
2021/05/02 05:00:02;;;;;;;19.50;15.50;;;;;;;8.25;74.01;99656.59;2193195;40;20030;-78
2021/05/02 05:01:36;;;;;;;21.73;18.58;;;;;;;8.26;73.44;99656.47;2208667;40;20042;-77
2021/05/02 05:03:08;;;;;;;18.25;14.43;;;;;;;8.32;73.10;99672.84;2210123;40;20049;-78
2021/05/02 05:04:40;;;;;;;18.30;14.18;;;;;;;8.38;72.92;99665.16;2192881;40;20030;-77
2021/05/02 05:06:11;;;;;;;17.20;13.27;;;;;;;8.45;72.47;99668.09;2204472;40;20395;-78
2021/05/02 05:07:43;;;;;;;16.60;13.52;;;;;;;8.48;72.04;99657.19;2187733;40;20046;-78
2021/05/02 05:09:15;;;;;;;19.33;16.10;;;;;;;8.50;71.49;99671.19;2208495;40;20058;-77
2021/05/02 05:10:46;;;;;;;17.40;15.02;;;;;;;8.50;70.88;99665.88;2173341;40;20026;-77
2021/05/02 05:12:17;;;;;;;23.30;20.38;;;;;;;8.54;71.29;99672.63;2191611;40;20037;-76
2021/05/02 05:13:49;;;;;;;22.50;19.13;;;;;;;8.52;71.62;99671.91;2209118;40;20422;-76
2021/05/02 05:15:21;;;;;;;26.85;21.30;;;;;;;8.50;72.13;99681.84;2214206;40;20117;-77
2021/05/02 05:16:53;;;;;;;26.45;23.63;;;;;;;8.39;72.97;99677.47;2209872;40;21293;-76
2021/05/02 05:18:25;;;;;;;29.75;23.40;;;;;;;8.27;74.52;99682.09;2210257;40;20042;-78
2021/05/02 05:19:56;;;;;;;29.63;23.75;;;;;;;8.18;75.49;99680.28;2210953;40;20077;-78
2021/05/02 05:21:28;;;;;;;30.70;23.63;;;;;;;8.12;75.89;99692.31;2210569;40;20030;-77
2021/05/02 05:22:59;;;;;;;23.75;20.00;;;;;;;8.04;76.42;99685.97;2171510;40;20598;-77
2021/05/02 05:24:31;;;;;;;28.33;23.15;;;;;;;8.00;76.75;99695.25;2202525;40;20568;-77
2021/05/02 05:26:03;;;;;;;27.60;24.25;;;;;;;7.93;77.05;99698.47;2205969;40;20066;-78
2021/05/02 05:27:34;;;;;;;26.73;22.60;;;;;;;7.91;77.25;99696.88;2211206;40;20033;-78
2021/05/02 05:29:11;;;;;;;28.00;23.85;;;;;;;7.85;77.39;99695.59;2209664;40;20088;-78
2021/05/02 05:30:43;;;;;;;27.35;23.38;;;;;;;7.84;77.60;99709.06;2214278;40;20038;-78
2021/05/02 05:32:15;;;;;;;26.67;23.77;;;;;;;7.77;77.66;99706.94;2196634;40;20047;-78
2021/05/02 05:33:46;;;;;;;25.98;22.95;;;;;;;7.79;77.86;99710.28;2197957;40;20043;-77
2021/05/02 05:35:17;;;;;;;28.35;24.67;;;;;;;7.79;77.50;99715.63;2202972;40;20038;-78
2021/05/02 05:36:49;;;;;;;26.58;23.75;;;;;;;7.79;77.72;99712.97;2210389;40;20393;-77
2021/05/02 05:38:20;;;;;;;29.20;24.10;;;;;;;7.78;77.77;99713.97;2207779;40;20050;-77
2021/05/02 05:39:51;;;;;;;26.55;23.60;;;;;;;7.80;77.94;99721.81;2202745;40;20406;-77
2021/05/02 05:41:23;;;;;;;25.55;22.17;;;;;;;7.79;77.93;99720.94;2211162;40;20353;-76
2021/05/02 05:42:55;;;;;;;28.80;25.58;;;;;;;7.83;78.00;99718.88;2207798;40;20048;-76
2021/05/02 05:44:26;;;;;;;29.58;21.92;;;;;;;7.86;78.06;99721.25;2209346;40;20026;-77
2021/05/02 05:45:57;;;;;;;26.73;20.95;;;;;;;7.90;77.83;99722.69;2205880;40;20042;-76
2021/05/02 05:47:29;;;;;;;25.95;21.98;;;;;;;7.95;77.68;99716.94;2212586;40;20045;-76
2021/05/02 05:49:01;;;;;;;28.55;24.08;;;;;;;7.95;77.79;99720.44;2196797;40;21242;-76
2021/05/02 05:50:32;;;;;;;28.08;23.33;;;;;;;7.97;77.66;99723.81;2187997;40;20055;-76
2021/05/02 05:52:04;;;;;;;27.00;23.42;;;;;;;7.97;77.71;99718.50;2213580;40;20049;-77
2021/05/02 05:53:36;;;;;;;28.70;21.85;;;;;;;8.02;77.30;99725.25;2210356;40;20049;-76
2021/05/02 05:55:08;;;;;;;28.65;23.10;;;;;;;8.03;77.26;99719.75;2208040;40;20052;-77
2021/05/02 05:56:40;;;;;;;24.77;19.92;;;;;;;8.06;77.25;99722.16;2209260;40;20041;-76
2021/05/02 05:58:11;;;;;;;29.98;24.08;;;;;;;8.15;77.06;99735.63;2208180;40;20034;-75
2021/05/02 05:59:43;;;;;;;31.98;25.52;;;;;;;8.17;77.16;99725.69;2209731;40;20061;-76
2021/05/02 06:01:14;;;;;;;29.10;25.65;;;;;;;8.18;77.47;99740.66;2208599;40;20053;-76
2021/05/02 06:02:47;;;;;;;25.10;21.35;;;;;;;8.19;77.48;99737.03;2210172;40;20574;-76
2021/05/02 06:04:18;;;;;;;25.13;21.48;;;;;;;8.19;77.40;99740.53;2207855;40;20052;-76
2021/05/02 06:05:50;;;;;;;24.63;21.02;;;;;;;8.22;77.38;99740.25;2207973;40;20429;-76
2021/05/02 06:07:21;;;;;;;25.65;20.80;;;;;;;8.21;77.47;99737.75;2207197;40;20041;-75
2021/05/02 06:08:53;;;;;;;29.30;24.35;;;;;;;8.19;77.51;99739.69;2210116;40;20041;-75
2021/05/02 06:10:25;;;;;;;29.85;24.92;;;;;;;8.19;77.49;99740.53;2206832;40;20131;-76
2021/05/02 06:11:56;;;;;;;26.98;23.50;;;;;;;8.21;77.28;99740.41;2208116;40;20042;-75
2021/05/02 06:13:27;;;;;;;26.40;21.52;;;;;;;8.22;77.13;99739.44;2207814;40;20061;-76
2021/05/02 06:15:00;;;;;;;29.00;25.38;;;;;;;8.28;77.16;99738.88;2208561;40;20038;-75
2021/05/02 06:16:32;;;;;;;27.10;24.10;;;;;;;8.32;76.92;99736.75;2207730;40;20046;-75
2021/05/02 06:18:04;;;;;;;27.05;24.17;;;;;;;8.35;76.88;99733.84;2208618;40;20414;-76
2021/05/02 06:19:35;;;;;;;27.45;24.52;;;;;;;8.42;76.82;99746.47;2208124;40;20403;-75
2021/05/02 06:21:07;;;;;;;30.42;24.98;;;;;;;8.46;76.61;99744.38;2208074;40;20549;-76
2021/05/02 06:22:38;;;;;;;28.88;23.42;;;;;;;8.46;76.78;99744.38;2211410;40;20050;-76
2021/05/02 06:24:10;;;;;;;24.20;21.63;;;;;;;8.40;76.41;99751.09;2210818;40;20393;-77
2021/05/02 06:25:41;;;;;;;28.35;24.10;;;;;;;8.38;76.28;99749.56;2210878;40;20038;-75
2021/05/02 06:27:13;;;;;;;26.73;23.70;;;;;;;8.33;76.11;99744.63;2212629;40;20045;-76
2021/05/02 06:28:44;;;;;;;26.13;21.70;;;;;;;8.31;75.95;99745.75;2184994;40;20030;-76
2021/05/02 06:30:17;;;;;;;26.30;20.65;;;;;;;8.28;75.80;99752.19;2207765;40;20041;-76
2021/05/02 06:31:48;;;;;;;26.05;20.48;;;;;;;8.32;75.99;99755.41;2213498;40;20468;-77
2021/05/02 06:33:20;;;;;;;26.00;23.08;;;;;;;8.32;75.70;99742.94;2216985;40;20041;-76
2021/05/02 06:34:52;;;;;;;25.42;21.73;;;;;;;8.27;75.52;99743.38;2220212;40;20496;-76
2021/05/02 06:36:23;;;;;;;25.42;22.30;;;;;;;8.30;75.81;99755.56;2219167;40;20441;-78
2021/05/02 06:37:54;;;;;;;25.60;22.75;;;;;;;8.31;75.81;99759.09;2219068;40;20064;-77
2021/05/02 06:39:26;;;;;;;25.65;22.20;;;;;;;8.32;75.66;99755.41;2218189;40;20052;-79
2021/05/02 06:40:57;;;;;;;23.23;19.33;;;;;;;8.35;75.67;99757.81;2219178;40;20037;-76
2021/05/02 06:42:28;;;;;;;25.77;19.77;;;;;;;8.40;75.60;99755.59;2218470;40;20049;-78
2021/05/02 06:44:01;;;;;;;25.00;21.65;;;;;;;8.40;75.59;99755.59;2219010;40;20044;-78
2021/05/02 06:45:33;;;;;;;25.75;20.40;;;;;;;8.41;75.65;99760.78;2213976;40;20057;-79
2021/05/02 06:47:05;;;;;;;23.85;19.50;;;;;;;8.43;75.71;99760.63;2218839;40;20030;-78
2021/05/02 06:48:37;;;;;;;23.67;20.42;;;;;;;8.47;75.80;99759.41;2219406;40;20038;-79
2021/05/02 06:50:09;;;;;;;26.77;21.92;;;;;;;8.49;75.53;99762.78;2204182;40;20055;-79
2021/05/02 06:51:40;;;;;;;24.85;21.45;;;;;;;8.54;75.61;99762.38;2215036;40;20048;-79
2021/05/02 06:53:12;;;;;;;28.88;22.48;;;;;;;8.57;75.39;99762.94;2211737;40;20038;-79
2021/05/02 06:54:43;;;;;;;26.30;22.70;;;;;;;8.59;75.21;99757.44;2195904;40;20038;-79
2021/05/02 06:56:14;;;;;;;24.25;20.85;;;;;;;8.66;75.09;99755.91;2199839;40;20042;-78
2021/05/02 06:57:45;;;;;;;24.73;21.42;;;;;;;8.71;74.61;99763.47;2192548;40;20194;-79
2021/05/02 06:59:17;;;;;;;23.25;19.08;;;;;;;8.70;74.35;99761.81;2203801;40;20034;-79
2021/05/02 07:06:54;;;;;;;25.20;21.35;;;;;;;9.08;72.97;99754.78;2179395;41;20046;-80
2021/05/02 07:08:24;;;;;;;21.95;19.08;;;;;;;9.16;72.85;99762.91;2193077;40;20050;-79
2021/05/02 07:09:56;;;;;;;22.05;19.40;;;;;;;9.29;72.51;99761.75;2197231;40;20039;-79
2021/05/02 07:11:28;;;;;;;20.55;18.33;;;;;;;9.27;71.83;99769.06;2179257;41;20053;-79
2021/05/02 07:12:59;;;;;;;24.42;20.20;;;;;;;9.32;71.56;99766.81;2194743;40;20114;-79
2021/05/02 07:14:30;;;;;;;20.70;17.60;;;;;;;9.45;71.11;99761.16;2208158;40;20437;-79
2021/05/02 07:16:01;;;;;;;22.30;19.73;;;;;;;9.56;70.54;99768.16;2213583;40;20042;-79